Terminal Aerodrome Forecast
Issued by NWS

Home | Current Version | Previous Version | Text Only | Print | Product List | Glossary On
Versions: 1 2 3 4 5 6 7 8 9 10 11 12 13 14 15 16 17 18
000
FTUS41 KBGM 301737
TAFITH
TAF
KITH 301737Z 3018/3118 16009KT P6SM BKN040
      TEMPO 3018/3022 4SM TSRA BR BKN040CB
     FM310000 19008KT P6SM -SHRA BKN080 OVC200
     FM310500 26006KT 4SM SHRA BR OVC015
     FM310800 33012KT 3SM -RA BR OVC007
     FM311500 34013G22KT 4SM -RA BR OVC012=

USA.gov is the U.S. government's official web portal to all federal, state and local government web resources and services.